Time;durP1;ratioP1;P1;durP2;ratioP2;P2;SDS_P1;SDS_P2;PMS_P1;PMS_P2;Temp;Humidity;BMP_temperature;BMP_pressure;BME280_temperature;BME280_humidity;BME280_pressure;Samples;Min_cycle;Max_cycle;Signal;HPM_P1;HPM_P2
2022/02/02 00:02:36;;;;;;;3.40;2.95;;;;;;;28.47;52.35;101081.03;5062825;28;66694;-34
2022/02/02 00:05:29;;;;;;;4.07;2.40;;;;;;;28.34;52.95;101066.59;5064591;27;69944;-34
2022/02/02 00:08:14;;;;;;;6.85;4.65;;;;;;;28.59;54.96;101094.78;5060854;28;65883;-33
2022/02/02 00:13:55;;;;;;;7.70;6.65;;;;;;;28.72;56.76;101102.09;5072516;27;66494;-33
2022/02/02 00:16:46;;;;;;;8.98;6.97;;;;;;;28.76;57.32;101099.84;5064276;27;70367;-33
2022/02/02 00:22:15;;;;;;;7.53;6.55;;;;;;;28.94;57.31;101119.84;5063252;28;70472;-33
2022/02/02 00:27:20;;;;;;;12.63;7.05;;;;;;;29.03;57.76;101127.78;5073005;28;69597;-33
2022/02/02 00:29:59;;;;;;;24.13;8.63;;;;;;;29.09;57.13;101127.03;5063498;28;65897;-34
2022/02/02 00:32:51;;;;;;;13.23;8.98;;;;;;;29.10;56.56;101134.91;5067641;28;70190;-35
2022/02/02 00:35:27;;;;;;;17.63;9.05;;;;;;;29.04;56.28;101140.28;5066197;27;66341;-34
2022/02/02 00:37:58;;;;;;;19.65;9.57;;;;;;;29.01;56.24;101130.69;5059093;28;70475;-34
2022/02/02 00:40:28;;;;;;;11.55;8.80;;;;;;;29.01;56.01;101138.78;5059056;28;66334;-33
2022/02/02 00:42:58;;;;;;;13.30;8.43;;;;;;;29.00;56.30;101136.28;5068248;27;70058;-32
2022/02/02 00:45:33;;;;;;;15.68;9.68;;;;;;;28.98;56.05;101130.28;5066037;28;66466;-32
2022/02/02 00:48:04;;;;;;;10.32;8.98;;;;;;;28.96;55.60;101139.38;5064300;28;70353;-33
2022/02/02 00:50:34;;;;;;;9.60;8.32;;;;;;;28.98;55.76;101136.50;5069901;28;65526;-33
2022/02/02 00:53:06;;;;;;;10.13;8.27;;;;;;;28.94;55.23;101146.84;5068391;27;70067;-33
2022/02/02 00:55:40;;;;;;;13.65;8.68;;;;;;;28.92;55.88;101159.75;5076433;27;66710;-33
2022/02/02 00:58:11;;;;;;;12.27;8.65;;;;;;;28.93;55.30;101161.41;5071455;28;70045;-33
2022/02/02 01:00:41;;;;;;;14.68;7.75;;;;;;;28.90;55.25;101167.19;5066987;27;65439;-33
2022/02/02 01:03:12;;;;;;;26.42;8.88;;;;;;;28.91;55.13;101159.94;5068380;27;70124;-33
2022/02/02 01:05:44;;;;;;;14.15;9.07;;;;;;;28.91;55.31;101168.84;5072847;27;66124;-32
2022/02/02 01:11:30;;;;;;;13.25;6.95;;;;;;;28.94;54.84;101173.84;5066376;27;65010;-33
2022/02/02 01:29:51;;;;;;;12.68;8.38;;;;;;;29.13;54.63;101198.50;5068707;28;68878;-33
2022/02/02 01:32:22;;;;;;;19.27;14.77;;;;;;;29.15;54.46;101202.66;5075108;27;67070;-34
2022/02/02 01:34:54;;;;;;;59.38;37.63;;;;;;;29.15;54.67;101199.13;5070054;27;69979;-32
2022/02/02 01:37:26;;;;;;;;;;;;;;;28.96;54.78;101198.81;5067884;28;65860;-34
2022/02/02 01:40:01;;;;;;;26.65;20.70;;;;;;;29.18;54.38;101213.06;5069662;27;69947;-33
2022/02/02 01:42:40;;;;;;;23.77;14.30;;;;;;;29.25;54.05;101217.66;5066340;27;66415;-35
2022/02/02 01:45:18;;;;;;;21.13;14.15;;;;;;;29.28;54.16;101212.72;5062522;28;70027;-33
2022/02/02 01:51:33;;;;;;;15.60;9.57;;;;;;;29.38;53.96;101226.66;5064245;27;70102;-34
2022/02/02 01:54:14;;;;;;;13.60;8.70;;;;;;;29.43;53.95;101223.34;5088325;27;65663;-35
2022/02/02 01:56:45;;;;;;;9.48;8.63;;;;;;;29.44;53.58;101211.50;5064720;28;69118;-34
2022/02/02 01:59:34;;;;;;;12.52;8.20;;;;;;;29.55;53.79;101223.59;5060944;28;64714;-34
2022/02/02 02:02:09;;;;;;;11.35;9.50;;;;;;;29.53;53.13;101217.56;5070068;28;70635;-41
2022/02/02 02:04:39;;;;;;;12.48;8.13;;;;;;;29.64;53.28;101224.28;5064172;27;65905;-43
2022/02/02 02:07:10;;;;;;;13.00;8.15;;;;;;;29.67;53.30;101226.56;5073011;28;68686;-34
2022/02/02 02:09:40;;;;;;;11.70;7.28;;;;;;;29.71;53.65;101228.66;5061146;28;66184;-36
2022/02/02 02:12:12;;;;;;;15.65;7.93;;;;;;;29.73;53.42;101232.00;5062786;27;69386;-35
2022/02/02 02:14:56;;;;;;;14.07;8.13;;;;;;;29.72;53.58;101222.22;5067614;28;66039;-35
2022/02/02 02:17:26;;;;;;;15.60;11.68;;;;;;;29.79;54.13;101236.59;5059442;28;70297;-35
2022/02/02 02:19:57;;;;;;;15.95;9.60;;;;;;;29.83;54.00;101240.53;5053541;28;66549;-34
2022/02/02 02:22:32;;;;;;;20.25;13.15;;;;;;;29.88;54.29;101241.81;5067767;27;69086;-35
2022/02/02 02:25:03;;;;;;;17.00;12.30;;;;;;;29.92;53.75;101238.50;5061386;28;66182;-35
2022/02/02 02:27:34;;;;;;;24.70;13.57;;;;;;;29.93;53.50;101244.75;5064569;28;69272;-36
2022/02/02 02:30:14;;;;;;;19.90;11.98;;;;;;;29.94;53.72;101230.16;5071138;28;65734;-35
2022/02/02 02:57:50;;;;;;;34.05;25.65;;;;;;;30.41;52.91;101228.38;5071113;27;66282;-36
2022/02/02 03:30:46;;;;;;;25.98;20.45;;;;;;;30.86;50.73;101193.31;5069232;27;66438;-36
2022/02/02 04:06:43;;;;;;;29.00;23.27;;;;;;;31.26;50.87;101163.34;5072964;27;70132;-37
2022/02/02 04:09:13;;;;;;;44.80;32.10;;;;;;;31.24;51.14;101160.06;5067476;27;65238;-37
2022/02/02 04:11:53;;;;;;;54.40;38.83;;;;;;;31.14;51.74;101150.50;5077758;27;70344;-37
2022/02/02 04:15:32;;;;;;;38.35;30.63;;;;;;;31.19;51.33;101159.88;5052748;28;65212;-37
2022/02/02 04:57:17;;;;;;;7.55;7.05;;;;;;;32.22;47.53;101067.34;5066835;27;70072;-37
2022/02/02 04:59:49;;;;;;;6.43;5.82;;;;;;;32.27;47.25;101064.78;5068989;27;67005;-38
2022/02/02 05:08:03;;;;;;;5.38;4.82;;;;;;;32.37;46.96;101043.34;5076706;28;69883;-38
2022/02/02 05:49:43;;;;;;;6.53;4.68;;;;;;;32.53;44.19;100984.09;5075062;27;65804;-36
2022/02/02 05:52:12;;;;;;;14.77;5.50;;;;;;;32.02;43.76;100932.69;5073699;27;70409;-37
2022/02/02 05:54:43;;;;;;;13.30;7.82;;;;;;;32.09;44.00;100965.16;5067676;27;66569;-37
2022/02/02 05:57:15;;;;;;;18.60;8.75;;;;;;;31.40;43.48;100869.53;5070876;27;70052;-37
2022/02/02 05:59:45;;;;;;;18.77;9.48;;;;;;;31.87;43.01;100967.47;5066128;27;66662;-37
2022/02/02 06:02:16;;;;;;;13.20;9.15;;;;;;;31.73;42.88;100952.41;5073944;27;70226;-36
2022/02/02 06:04:48;;;;;;;12.50;9.73;;;;;;;31.60;43.12;100940.63;5074316;27;65293;-37
2022/02/02 06:07:18;;;;;;;16.48;9.43;;;;;;;31.52;42.78;100932.78;5064578;27;70598;-36
2022/02/02 06:09:50;;;;;;;10.10;9.25;;;;;;;31.45;42.51;100926.59;5067608;28;66757;-38
2022/02/02 06:12:22;;;;;;;;;;;;;;;31.16;43.20;100923.50;5070490;27;70605;-40
2022/02/02 06:14:53;;;;;;;16.23;8.85;;;;;;;31.29;42.92;100927.97;5067066;28;66232;-39
2022/02/02 06:17:27;;;;;;;37.78;12.35;;;;;;;31.23;43.30;100906.34;5070915;27;70225;-40
2022/02/02 06:19:57;;;;;;;50.42;12.85;;;;;;;31.27;44.23;100910.28;5063895;28;66177;-41
2022/02/02 06:22:32;;;;;;;31.70;11.27;;;;;;;31.25;43.17;100905.06;5068053;28;70336;-39
2022/02/02 06:25:12;;;;;;;29.80;11.65;;;;;;;31.21;42.94;100894.91;5057196;28;66169;-40
2022/02/02 06:27:47;;;;;;;55.05;11.07;;;;;;;31.11;43.82;100882.69;5067395;28;70094;-40
2022/02/02 06:30:19;;;;;;;44.63;11.35;;;;;;;31.12;43.87;100887.06;5064712;28;65647;-40
2022/02/02 06:32:52;;;;;;;;;;;;;;;30.92;44.03;100883.66;5067413;27;69302;-40
2022/02/02 06:35:23;;;;;;;31.70;9.98;;;;;;;31.01;43.46;100871.53;5073912;27;66004;-40
2022/02/02 06:37:53;;;;;;;29.00;8.75;;;;;;;30.99;43.44;100865.50;5071230;28;69913;-41
2022/02/02 06:40:24;;;;;;;39.03;9.35;;;;;;;30.97;43.05;100864.88;5062632;28;65361;-41
2022/02/02 06:42:54;;;;;;;20.83;9.20;;;;;;;30.97;42.92;100864.06;5065063;28;69530;-40
2022/02/02 06:45:26;;;;;;;21.95;8.18;;;;;;;30.94;42.51;100871.56;5071329;28;65876;-39
2022/02/02 06:47:56;;;;;;;20.27;8.23;;;;;;;30.90;42.37;100861.41;5068722;27;71122;-40
2022/02/02 06:50:33;;;;;;;22.15;8.52;;;;;;;30.80;42.23;100853.78;5067164;27;65263;-39
2022/02/02 06:56:09;;;;;;;15.35;7.03;;;;;;;30.58;40.78;100807.25;5066963;27;66233;-40
2022/02/02 06:59:06;;;;;;;13.50;6.88;;;;;;;30.67;40.86;100821.34;5051146;28;68870;-39
2022/02/02 07:01:52;;;;;;;8.68;6.22;;;;;;;30.70;41.20;100826.31;5074969;28;66169;-40
2022/02/02 07:05:10;;;;;;;8.73;5.93;;;;;;;30.73;40.32;100837.56;5071639;27;69575;-40
2022/02/02 07:07:57;;;;;;;8.95;6.43;;;;;;;30.74;40.56;100832.97;5072745;28;66432;-41
2022/02/02 07:19:12;;;;;;;8.95;5.28;;;;;;;30.75;40.35;100820.25;5039397;27;65901;-40
2022/02/02 07:24:40;;;;;;;5.97;5.32;;;;;;;30.77;39.83;100812.75;5071925;28;66016;-42
2022/02/02 07:32:29;;;;;;;6.50;5.68;;;;;;;30.76;39.72;100803.78;5069149;27;70449;-39
2022/02/02 07:35:22;;;;;;;6.20;5.70;;;;;;;30.84;39.42;100800.84;5068820;28;66269;-40
2022/02/02 07:37:58;;;;;;;6.25;5.65;;;;;;;30.89;39.28;100802.84;5046189;28;69992;-40
2022/02/02 07:40:33;;;;;;;6.00;5.40;;;;;;;30.91;39.71;100803.47;5071737;27;66240;-40
2022/02/02 07:43:05;;;;;;;5.70;5.15;;;;;;;30.91;39.86;100801.59;5045122;28;69702;-40
2022/02/02 07:45:36;;;;;;;16.47;8.03;;;;;;;30.94;40.44;100800.31;5067607;27;66070;-42
2022/02/02 07:48:07;;;;;;;18.17;8.00;;;;;;;31.04;41.40;100806.06;5061257;28;69689;-40
2022/02/02 07:50:38;;;;;;;14.40;7.88;;;;;;;31.12;41.49;100796.78;5073101;27;64770;-39
2022/02/02 07:53:12;;;;;;;19.27;8.80;;;;;;;31.25;41.54;100801.25;5068579;28;69239;-40
2022/02/02 07:55:47;;;;;;;20.63;9.32;;;;;;;31.32;41.06;100802.03;5067074;27;66333;-41
2022/02/02 07:58:22;;;;;;;33.65;9.85;;;;;;;31.37;41.42;100804.91;5071730;27;71040;-41
2022/02/02 08:00:54;;;;;;;30.70;9.70;;;;;;;31.41;41.07;100805.31;5061276;28;66276;-39
2022/02/02 08:03:27;;;;;;;31.20;10.45;;;;;;;31.45;41.46;100799.19;5061485;28;69578;-39
2022/02/02 08:06:01;;;;;;;33.38;11.65;;;;;;;31.46;41.80;100798.16;5059058;28;66051;-40
2022/02/02 08:08:34;;;;;;;45.13;13.13;;;;;;;31.52;42.37;100797.22;5061233;28;69223;-39
2022/02/02 08:11:08;;;;;;;37.65;12.52;;;;;;;31.57;42.10;100804.69;5064893;28;65944;-37
2022/02/02 08:13:47;;;;;;;25.05;13.65;;;;;;;31.59;41.92;100792.56;5063188;28;69655;-39
2022/02/02 08:16:17;;;;;;;29.50;13.32;;;;;;;31.64;41.62;100791.88;5067848;27;66249;-37
2022/02/02 08:18:51;;;;;;;24.30;15.27;;;;;;;31.66;41.46;100791.66;5066101;27;70245;-37
2022/02/02 08:21:22;;;;;;;39.92;16.75;;;;;;;31.69;41.91;100791.19;5062553;28;66409;-37
2022/02/02 08:23:52;;;;;;;40.85;16.05;;;;;;;31.67;41.71;100782.44;5067300;28;69092;-36
2022/02/02 08:26:23;;;;;;;40.33;16.10;;;;;;;31.77;42.42;100799.03;5066016;28;66433;-37
2022/02/02 08:28:57;;;;;;;42.42;18.92;;;;;;;31.79;43.57;100794.19;5070308;27;70397;-37
2022/02/02 08:31:29;;;;;;;23.67;13.80;;;;;;;31.91;45.87;100786.97;5061480;28;66554;-37
2022/02/02 08:34:07;;;;;;;29.83;12.68;;;;;;;32.16;47.03;100797.69;5066101;28;68874;-36
2022/02/02 08:36:52;;;;;;;13.73;8.02;;;;;;;32.37;46.98;100799.00;5071754;27;66269;-37
2022/02/02 08:39:39;;;;;;;12.50;7.72;;;;;;;32.56;47.07;100796.25;5064216;28;69327;-35
2022/02/02 08:42:13;;;;;;;11.60;8.40;;;;;;;32.58;47.48;100772.41;5072306;27;66118;-36
2022/02/02 08:45:00;;;;;;;23.13;8.88;;;;;;;32.86;48.13;100788.84;5067609;28;70375;-35
2022/02/02 08:47:33;;;;;;;9.95;8.52;;;;;;;33.02;48.06;100789.25;5064380;28;66284;-35
2022/02/02 08:50:05;;;;;;;12.13;9.60;;;;;;;33.18;47.90;100783.06;5062660;27;69152;-37
2022/02/02 08:52:48;;;;;;;12.98;9.00;;;;;;;33.28;47.50;100783.28;5067853;28;66328;-36
2022/02/02 08:58:23;;;;;;;21.90;10.43;;;;;;;33.55;47.15;100794.50;5049853;27;65433;-36
2022/02/02 09:00:55;;;;;;;10.10;9.27;;;;;;;33.62;46.83;100783.47;5065855;28;70409;-35
2022/02/02 09:06:15;;;;;;;20.60;9.10;;;;;;;33.84;46.98;100789.06;5066973;27;70222;-36
2022/02/02 09:08:48;;;;;;;25.27;9.45;;;;;;;33.92;46.97;100787.88;5073240;27;65906;-36
2022/02/02 09:23:28;;;;;;;8.48;7.75;;;;;;;34.21;46.38;100792.25;5060470;28;70377;-35
2022/02/02 09:25:42;;;;;;;9.55;7.82;;;;;;;34.34;46.14;100801.16;5057449;28;66276;-37
2022/02/02 09:33:58;;;;;;;7.80;7.03;;;;;;;34.48;45.53;100813.38;5062353;27;70080;-36
2022/02/02 09:36:31;;;;;;;10.23;8.25;;;;;;;34.50;45.89;100815.88;5056532;28;66304;-35
2022/02/02 09:39:10;;;;;;;11.18;7.13;;;;;;;34.55;45.66;100824.97;5061884;27;70057;-36
2022/02/02 09:44:20;;;;;;;7.90;7.10;;;;;;;34.59;45.32;100826.13;5070974;28;69798;-36
2022/02/02 09:46:58;;;;;;;6.97;6.50;;;;;;;34.61;45.01;100834.91;5065450;28;66058;-36
2022/02/02 09:52:16;;;;;;;7.93;7.28;;;;;;;34.64;45.11;100839.84;5088592;27;65349;-35
2022/02/02 09:55:15;;;;;;;7.13;6.50;;;;;;;34.63;45.07;100827.31;5062475;28;69876;-35
2022/02/02 09:58:19;;;;;;;7.32;6.63;;;;;;;34.65;44.94;100833.31;5072457;27;66469;-35
2022/02/02 10:01:02;;;;;;;8.35;6.60;;;;;;;34.70;45.10;100841.56;5074575;27;69939;-36
2022/02/02 10:06:48;;;;;;;7.15;6.60;;;;;;;34.72;45.10;100844.06;5067202;27;69945;-36
2022/02/02 10:12:49;;;;;;;8.18;6.97;;;;;;;34.77;44.79;100859.66;5071751;27;70287;-35
2022/02/02 10:15:24;;;;;;;6.78;6.28;;;;;;;34.76;45.11;100849.84;5072814;28;66619;-36
2022/02/02 10:17:59;;;;;;;6.72;5.88;;;;;;;34.77;44.83;100848.75;5074598;28;69939;-35
2022/02/02 10:20:30;;;;;;;7.90;6.65;;;;;;;34.77;45.00;100854.19;5069146;27;66216;-36
2022/02/02 10:23:03;;;;;;;9.97;6.40;;;;;;;34.76;45.42;100858.00;5070397;28;70250;-36
2022/02/02 10:25:38;;;;;;;8.25;7.57;;;;;;;34.78;45.22;100861.31;5068252;27;66527;-36
2022/02/02 10:28:17;;;;;;;8.32;7.53;;;;;;;34.62;45.13;100841.97;5064736;27;70443;-35
2022/02/02 10:30:50;;;;;;;8.85;8.05;;;;;;;34.75;45.43;100861.81;5070489;27;66483;-35
2022/02/02 10:33:26;;;;;;;9.77;8.88;;;;;;;34.73;45.51;100863.97;5066749;28;70956;-35
2022/02/02 10:36:09;;;;;;;10.90;9.43;;;;;;;34.69;45.64;100859.00;5071999;27;66197;-36
2022/02/02 10:38:50;;;;;;;14.88;10.02;;;;;;;34.69;45.98;100875.34;5070388;28;68961;-36
2022/02/02 10:41:30;;;;;;;13.90;12.35;;;;;;;34.72;45.68;100873.22;5073921;27;65964;-36
2022/02/02 10:44:26;;;;;;;13.95;12.75;;;;;;;34.61;45.87;100873.03;5075725;28;70406;-35
2022/02/02 10:47:10;;;;;;;15.07;13.65;;;;;;;34.67;46.07;100888.38;5076614;28;65626;-34
2022/02/02 11:00:50;;;;;;;17.25;15.43;;;;;;;34.56;46.19;100897.47;5076441;27;68896;-35
2022/02/02 11:08:59;;;;;;;28.25;22.38;;;;;;;34.50;46.61;100908.50;5090598;27;65175;-36
2022/02/02 11:11:31;;;;;;;28.63;24.58;;;;;;;34.48;46.91;100914.16;5077683;28;70040;-35
2022/02/02 11:14:07;;;;;;;29.15;26.02;;;;;;;34.31;47.08;100897.78;5075476;27;66207;-36
2022/02/02 11:16:44;;;;;;;30.05;27.02;;;;;;;34.35;47.03;100906.28;5070123;28;70125;-35
2022/02/02 11:19:17;;;;;;;31.70;26.45;;;;;;;34.21;47.04;100887.53;5069500;27;66314;-36
2022/02/02 11:21:47;;;;;;;27.27;24.35;;;;;;;34.34;47.18;100919.06;5070469;28;70338;-35
2022/02/02 11:24:38;;;;;;;25.85;23.23;;;;;;;34.32;47.28;100923.13;5069078;27;64719;-35
2022/02/02 11:27:28;;;;;;;27.67;21.83;;;;;;;34.31;47.23;100926.91;5070618;28;69723;-36
2022/02/02 11:29:59;;;;;;;23.05;20.85;;;;;;;34.24;47.05;100935.22;5069422;28;65621;-37
2022/02/02 11:32:54;;;;;;;29.83;21.95;;;;;;;34.21;47.56;100933.81;5070349;27;70181;-36
2022/02/02 11:35:46;;;;;;;22.90;20.55;;;;;;;34.11;47.69;100928.16;5065495;27;65661;-36
2022/02/02 11:38:37;;;;;;;23.15;20.80;;;;;;;33.79;47.64;100887.75;5070943;27;69930;-35
2022/02/02 11:43:49;;;;;;;26.45;23.55;;;;;;;34.15;47.95;100956.53;5071191;27;69682;-35
2022/02/02 11:50:01;;;;;;;32.00;24.58;;;;;;;34.07;48.04;100970.53;5034059;28;69183;-36
2022/02/02 11:52:38;;;;;;;31.98;24.50;;;;;;;34.07;48.21;100981.41;5060307;28;66158;-36
2022/02/02 11:55:11;;;;;;;29.75;26.05;;;;;;;34.03;48.34;100980.22;5064290;27;69915;-36
2022/02/02 11:58:15;;;;;;;31.13;26.10;;;;;;;33.99;48.43;100979.03;5064480;28;66045;-35
2022/02/02 12:06:44;;;;;;;36.72;29.45;;;;;;;33.83;48.99;100977.06;5060346;28;69124;-35
2022/02/02 12:58:27;;;;;;;52.03;41.50;;;;;;;33.50;50.54;101044.56;5066824;28;69257;-36
2022/02/02 13:01:20;;;;;;;48.17;41.22;;;;;;;33.42;50.50;101044.06;5069532;28;66343;-36
2022/02/02 13:03:51;;;;;;;47.20;40.75;;;;;;;33.39;50.29;101039.94;5068447;27;70257;-35
2022/02/02 13:06:23;;;;;;;53.03;40.90;;;;;;;33.42;50.67;101044.91;5067722;28;66300;-35
2022/02/02 13:08:54;;;;;;;49.83;41.53;;;;;;;33.42;50.48;101061.22;5067692;28;68849;-36
2022/02/02 13:11:32;;;;;;;50.20;39.20;;;;;;;33.17;50.58;101019.78;5047516;28;66043;-35
2022/02/02 13:14:10;;;;;;;44.20;38.88;;;;;;;33.37;50.58;101064.63;5067957;28;70123;-35
2022/02/02 13:16:41;;;;;;;43.08;37.33;;;;;;;33.36;50.72;101057.53;5058238;28;66031;-35
2022/02/02 13:19:19;;;;;;;46.72;39.00;;;;;;;33.35;50.81;101063.22;5064624;27;70439;-36
2022/02/02 13:22:07;;;;;;;41.80;37.33;;;;;;;33.24;50.87;101064.84;5055752;28;65351;-36
2022/02/02 13:24:38;;;;;;;42.15;36.97;;;;;;;33.27;50.93;101069.00;5062784;27;70538;-40
2022/02/02 13:27:17;;;;;;;49.97;37.20;;;;;;;33.01;50.88;101032.13;5065189;28;65879;-35
2022/02/02 13:29:51;;;;;;;47.75;37.97;;;;;;;33.27;50.91;101080.69;5063070;28;70128;-36
2022/02/02 13:32:44;;;;;;;47.17;38.28;;;;;;;33.26;51.37;101092.59;5065464;28;66118;-36
2022/02/02 13:35:27;;;;;;;47.15;38.42;;;;;;;33.04;51.30;101062.44;5061224;27;70574;-35
2022/02/02 13:38:17;;;;;;;53.65;37.35;;;;;;;33.20;51.17;101096.25;5065251;27;65726;-36
2022/02/02 13:44:05;;;;;;;47.45;39.50;;;;;;;33.15;51.56;101088.81;5071858;27;66628;-36
2022/02/02 13:50:25;;;;;;;45.35;35.22;;;;;;;33.13;51.15;101098.25;5065962;28;66563;-35
2022/02/02 13:55:50;;;;;;;42.47;33.33;;;;;;;33.05;51.51;101095.84;5038535;27;66797;-36
2022/02/02 14:31:45;;;;;;;27.05;22.15;;;;;;;32.80;51.92;101123.94;5054674;28;69903;-37
2022/02/02 14:34:36;;;;;;;24.63;21.70;;;;;;;32.79;51.58;101127.72;5073732;27;66499;-36
2022/02/02 14:37:14;;;;;;;23.27;20.77;;;;;;;32.77;51.47;101127.13;5058996;28;69916;-35
2022/02/02 14:40:09;;;;;;;23.13;20.83;;;;;;;32.75;51.46;101126.50;5080918;27;65591;-35
2022/02/02 14:42:50;;;;;;;21.48;19.25;;;;;;;32.75;51.58;101125.69;5060304;28;70230;-35
2022/02/02 14:45:27;;;;;;;21.73;19.50;;;;;;;32.71;51.40;101122.59;5068172;27;65757;-35
2022/02/02 14:48:09;;;;;;;22.25;20.00;;;;;;;32.69;51.75;101127.41;5059486;28;70368;-36
2022/02/02 14:51:00;;;;;;;19.95;18.10;;;;;;;32.68;51.72;101133.88;5063748;27;66083;-36
2022/02/02 15:29:19;;;;;;;15.82;14.43;;;;;;;32.47;52.24;101130.56;5080613;28;66014;-35
2022/02/02 15:31:50;;;;;;;14.43;13.23;;;;;;;32.40;52.13;101116.22;5064169;27;69502;-37
2022/02/02 15:34:50;;;;;;;15.13;13.27;;;;;;;32.44;51.77;101119.31;5072945;28;65992;-36
2022/02/02 15:37:32;;;;;;;15.55;14.15;;;;;;;32.42;52.01;101130.38;5067274;28;70993;-36
2022/02/02 15:43:03;;;;;;;14.25;12.98;;;;;;;32.41;52.09;101128.75;5072732;28;70189;-35
2022/02/02 15:59:08;;;;;;;13.40;12.07;;;;;;;32.35;52.12;101126.09;5048632;28;69884;-36
2022/02/02 16:04:33;;;;;;;11.80;10.90;;;;;;;32.32;52.31;101121.09;5051383;28;69117;-37
2022/02/02 16:07:06;;;;;;;11.90;10.88;;;;;;;32.32;52.49;101115.66;5069698;28;65646;-36
2022/02/02 16:09:56;;;;;;;12.55;11.63;;;;;;;32.30;52.28;101110.47;5068762;27;70353;-36
2022/02/02 16:12:30;;;;;;;11.93;10.35;;;;;;;32.22;52.51;101095.31;5072716;27;65714;-36
2022/02/02 16:15:23;;;;;;;10.68;9.77;;;;;;;32.27;52.26;101108.22;5063013;27;69988;-36
2022/02/02 16:18:32;;;;;;;11.07;10.30;;;;;;;32.24;52.04;101104.06;5061717;28;65368;-36
2022/02/02 16:37:35;;;;;;;10.00;9.38;;;;;;;32.20;52.43;101099.28;5067337;27;69614;-36
2022/02/02 16:40:08;;;;;;;10.13;9.38;;;;;;;32.15;52.48;101089.13;5063419;28;66019;-36
2022/02/02 16:45:29;;;;;;;9.90;9.10;;;;;;;32.18;52.35;101095.97;5062099;28;66302;-36
2022/02/02 16:48:00;;;;;;;10.10;9.30;;;;;;;32.17;52.44;101097.84;5067712;27;70499;-35
2022/02/02 16:50:35;;;;;;;9.48;8.55;;;;;;;32.15;52.42;101094.56;5067644;27;65319;-37
2022/02/02 16:56:19;;;;;;;9.40;8.63;;;;;;;32.16;52.21;101089.94;5060639;28;66434;-35
2022/02/02 17:32:13;;;;;;;7.53;7.03;;;;;;;32.02;52.34;101068.38;5062366;28;64751;-35
2022/02/02 17:45:31;;;;;;;7.28;6.68;;;;;;;31.94;52.74;101052.38;5061942;27;70479;-36
2022/02/02 18:17:11;;;;;;;6.85;6.35;;;;;;;31.88;52.57;101033.44;5061848;28;65581;-36
2022/02/02 18:19:10;;;;;;;6.75;6.25;;;;;;;31.89;52.86;101041.31;5071656;27;70143;-36
2022/02/02 18:21:44;;;;;;;6.28;5.88;;;;;;;31.88;53.16;101034.25;5061300;28;43218;-36
2022/02/02 18:24:24;;;;;;;6.82;6.03;;;;;;;31.88;52.81;101039.69;5058561;28;70433;-34
2022/02/02 18:27:09;;;;;;;6.78;6.20;;;;;;;31.87;52.82;101031.75;5060800;28;65618;-35
2022/02/02 18:30:15;;;;;;;6.00;5.70;;;;;;;31.88;53.03;101033.44;5070221;28;69013;-35
2022/02/02 18:35:15;;;;;;;6.80;6.15;;;;;;;31.87;52.58;101027.16;5059835;28;69845;-36
2022/02/02 18:44:02;;;;;;;7.57;6.22;;;;;;;31.68;52.63;100995.63;5051560;28;66401;-35
2022/02/02 19:05:29;;;;;;;6.10;5.70;;;;;;;31.85;52.44;101002.16;5065550;27;65443;-35
2022/02/02 19:55:26;;;;;;;5.00;4.60;;;;;;;31.76;52.98;100960.06;5064091;28;66004;-36
2022/02/02 20:11:39;;;;;;;5.20;4.80;;;;;;;31.69;52.97;100959.34;5067094;28;66479;-35
2022/02/02 20:14:12;;;;;;;5.38;5.05;;;;;;;31.75;52.74;100958.44;5066661;27;70375;-35
2022/02/02 20:16:43;;;;;;;5.40;5.10;;;;;;;31.47;53.09;100919.06;5061700;28;66376;-35
2022/02/02 20:19:14;;;;;;;5.15;4.80;;;;;;;31.73;52.95;100960.53;5069958;28;69949;-35
2022/02/02 20:21:49;;;;;;;5.13;4.80;;;;;;;31.73;53.25;100961.38;5067719;28;67071;-35
2022/02/02 20:24:22;;;;;;;4.97;4.68;;;;;;;31.68;52.96;100954.94;5061345;28;70369;-35
2022/02/02 20:26:53;;;;;;;5.13;4.72;;;;;;;31.67;53.34;100948.69;5059685;28;65252;-36
2022/02/02 20:29:24;;;;;;;5.57;5.17;;;;;;;31.70;53.31;100955.56;5060716;28;70465;-36
2022/02/02 20:31:55;;;;;;;6.10;5.60;;;;;;;31.69;53.41;100956.63;5076758;28;66468;-36
2022/02/02 20:34:25;;;;;;;5.20;4.88;;;;;;;31.70;53.34;100960.97;5074657;27;69134;-35
2022/02/02 20:36:56;;;;;;;6.45;5.57;;;;;;;31.68;53.09;100963.94;5062405;27;66499;-35
2022/02/02 20:39:40;;;;;;;5.47;5.07;;;;;;;31.65;53.01;100958.09;5073037;27;69586;-36
2022/02/02 20:42:11;;;;;;;5.30;4.90;;;;;;;31.64;53.31;100961.88;5067172;28;66400;-36
2022/02/02 21:04:17;;;;;;;5.00;4.60;;;;;;;31.61;53.32;100963.97;5063049;28;65202;-35
2022/02/02 21:13:39;;;;;;;5.20;4.80;;;;;;;31.61;53.44;100963.97;5079326;28;69248;-36
2022/02/02 21:14:49;;;;;;;5.18;4.78;;;;;;;31.60;53.38;100962.34;5080044;27;66234;-34
2022/02/02 21:17:22;;;;;;;5.10;4.70;;;;;;;31.58;53.68;100964.44;5077971;27;69894;-35
2022/02/02 21:20:12;;;;;;;4.82;4.53;;;;;;;31.53;53.73;100956.13;5065916;27;65919;-35
2022/02/02 21:22:56;;;;;;;4.78;4.38;;;;;;;31.56;53.45;100966.53;5053409;28;69217;-35
2022/02/02 21:25:37;;;;;;;4.18;3.88;;;;;;;31.57;53.28;100967.38;5059446;27;66163;-35
2022/02/02 21:28:09;;;;;;;4.75;4.45;;;;;;;31.56;53.56;100973.84;5072597;28;70121;-34
2022/02/02 21:30:42;;;;;;;4.95;4.55;;;;;;;31.53;53.32;100977.81;5059746;28;66107;-35
2022/02/02 21:33:15;;;;;;;5.50;5.03;;;;;;;31.50;53.57;100964.72;5060384;28;69931;-35
2022/02/02 21:35:49;;;;;;;5.88;5.43;;;;;;;31.50;53.55;100967.41;5063902;27;65445;-36
2022/02/02 21:38:44;;;;;;;5.45;4.97;;;;;;;31.52;54.03;100969.94;5073308;27;70557;-36
2022/02/02 21:41:17;;;;;;;5.22;4.82;;;;;;;31.52;54.01;100964.50;5074310;27;65194;-35
2022/02/02 21:43:48;;;;;;;5.68;5.28;;;;;;;31.50;53.92;100972.03;5069453;27;69361;-34
2022/02/02 21:46:21;;;;;;;5.20;4.80;;;;;;;31.51;53.98;100970.97;5070497;27;66317;-36
2022/02/02 21:48:55;;;;;;;5.10;4.70;;;;;;;31.45;53.75;100969.97;5062606;28;70177;-35
2022/02/02 21:51:37;;;;;;;4.88;4.47;;;;;;;31.43;53.59;100966.66;5065134;28;65880;-36
2022/02/02 21:54:07;;;;;;;4.80;4.50;;;;;;;31.48;53.98;100968.69;5073537;27;70058;-35
2022/02/02 21:56:38;;;;;;;4.93;4.53;;;;;;;31.47;53.87;100965.16;5062162;28;66370;-35
2022/02/02 21:59:08;;;;;;;6.07;5.50;;;;;;;31.47;53.82;100967.88;5066365;28;69375;-35
2022/02/02 22:01:39;;;;;;;5.25;4.90;;;;;;;31.46;54.08;100966.22;5060633;28;66210;-35
2022/02/02 22:04:10;;;;;;;6.45;5.10;;;;;;;31.44;54.20;100962.06;5066487;28;69957;-35
2022/02/02 22:06:40;;;;;;;5.68;5.32;;;;;;;31.45;53.79;100969.97;5059195;28;66146;-35
2022/02/02 22:09:11;;;;;;;4.88;4.47;;;;;;;31.39;53.76;100970.88;5062684;28;69886;-34
2022/02/02 22:11:41;;;;;;;4.78;4.38;;;;;;;31.42;53.88;100975.84;5064049;28;64709;-34
2022/02/02 22:14:17;;;;;;;5.25;4.78;;;;;;;31.42;54.25;100970.41;5058563;28;70904;-35
2022/02/02 22:16:49;;;;;;;5.18;4.80;;;;;;;31.42;53.80;100975.84;5059208;28;65994;-36
2022/02/02 22:19:19;;;;;;;;;;;;;;;31.14;55.23;100985.19;5060014;28;69510;-35
2022/02/02 22:21:50;;;;;;;8.30;4.75;;;;;;;31.38;53.94;100985.47;5060967;28;67051;-35
2022/02/02 22:24:22;;;;;;;4.75;4.25;;;;;;;31.38;54.15;100977.34;5064151;28;70232;-35
2022/02/02 22:26:53;;;;;;;4.63;4.32;;;;;;;31.39;54.40;100981.69;5061728;28;66501;-35
2022/02/02 22:29:23;;;;;;;4.45;4.05;;;;;;;31.39;53.90;100981.69;5060950;28;70480;-35
2022/02/02 22:31:54;;;;;;;4.85;4.45;;;;;;;31.37;54.46;100984.66;5062226;28;65158;-34
2022/02/02 22:34:25;;;;;;;4.70;4.35;;;;;;;31.38;54.27;100990.91;5058954;27;70417;-34
2022/02/02 22:36:56;;;;;;;4.63;4.32;;;;;;;31.36;54.00;100993.00;5072894;28;66444;-35
2022/02/02 22:39:27;;;;;;;4.88;4.50;;;;;;;31.35;54.25;100985.88;5064404;28;69794;-34
2022/02/02 22:41:59;;;;;;;4.85;4.45;;;;;;;31.36;54.44;100987.56;5069754;28;66017;-34
2022/02/02 22:44:31;;;;;;;;;;;;;;;31.09;55.17;100992.31;5072983;27;69651;-35
2022/02/02 22:47:07;;;;;;;5.03;4.47;;;;;;;31.30;54.45;100980.28;5066184;27;65645;-35